Granger, WY (82934)

10:13 AM MST on February 27, 2015 (GMT -0700)
APRSWXNET Seedskadee NWR WY US | Change Station
CLOSE
Current Station
Personal Weather Station
Location: Kemmerer, WY
Elevation: 6322 ft
Nearby Weather Stations

Elev 6322 ft 41.90 °N, 109.85 °W | Updated 25 minutes ago

Snow
Snow
17 °F
Feels Like 17 °F
N
2
Wind Variable Wind from North
Gusts 6.0 mph

Today
High -- | Low -- °F
--% Chance of Precip.
Yesterday
High -- | Low -- °F
Precip. -- in
6:57 AM 6:07 PM
Waxing Gibbous, 70% visible
Pressure 29.84 in
Visibility 4.0 miles
Clouds Overcast 900 ft
Windchill 17 °F
Dew Point 7 °F
Humidity 63%
Rainfall 0.00 in
Snow Depth Not available.
UV 1 out of 12
Pollen .40 out of 12
Air Quality Not available.
Flu Activity Not available.
METAR KFBR 271655Z AUTO 09003KT 4SM -SN OVC009 M10/M12 A2984 RMK AO2 T10991117

More Conditions Fewer Conditions

Pressure 29.84 in
Visibility 4.0 miles
Clouds Overcast 900 ft
Windchill 17 °F
Dew Point 7 °F
Humidity 63%
Rainfall 0.00 in
Snow Depth Not available.
UV 1 out of 12
Pollen .40 out of 12
Air Quality Not available.
Flu Activity Not available.
METAR KFBR 271655Z AUTO 09003KT 4SM -SN OVC009 M10/M12 A2984 RMK AO2 T10991117

More Conditions Fewer Conditions

10-Day Weather Forecast

Almanac

Astronomy

Feb. 27, 2015 Rise Set
Actual Time
Civil Twilight
Nautical Twilight
Astronomical Twilight
Moon
Length of Visible Light
Length of Day
Tomorrow will be .
, % of the Moon is Illuminated

Today's Extremes

State Highs State Lows

Community

WunderPhotos

Upload Photos

1,800,746 photos uploaded!

WunderBlogs® & News

Nearby

Air Quality

  Air Quality AQ Index Pollutant
Not available.

Snow Depth

Station Depth Elevation

Earthquake Activity

City Distance Mag. Time & Date
Minimum magnitude displayed is 2.5.

Coastal Water Temperatures

Place Temperature

Nearby Weather Stations